Terminal Aerodrome Forecast
Issued by NWS

Home | Current Version | Previous Version | Text Only | Print | Product List | Glossary On
Versions: 1 2 3 4 5 6 7 8 9 10 11 12 13 14 15 16 17 18 19 20
000
FTAK31 PANC 170529
TAFAVD
TAF
PAVD 170529Z 1706/1806 06006KT P6SM VCSH BKN070
      TEMPO 1706/1709 2SM -SHSN BKN025
     FM170900 VRB04KT 2SM -SHSN SCT015 OVC025
     FM171200 VRB03KT 1SM -SHSN BR SCT005 BKN015
     FM172000 VRB03KT 3SM -SHSN BR SCT003 BKN025
     FM180300 06004KT P6SM SCT025 BKN060
      AMD LTD TO CLD VIS AND WIND=

USA.gov is the U.S. government's official web portal to all federal, state and local government web resources and services.